createdAt,value
2022-08-16T00:03:04.644Z,99569.63
2022-08-16T00:08:08.518Z,99566.41
2022-08-16T00:13:41.844Z,99568.60
2022-08-16T00:18:46.103Z,99566.75
2022-08-16T00:23:50.793Z,99571.33
2022-08-16T00:28:54.907Z,99576.27
2022-08-16T00:33:59.287Z,99577.09
2022-08-16T00:39:04.642Z,99578.90
2022-08-16T00:44:11.368Z,99581.61
2022-08-16T00:49:18.957Z,99582.06
2022-08-16T00:54:27.631Z,99582.81
2022-08-16T00:59:35.727Z,99581.44
2022-08-16T01:04:38.596Z,99582.45
2022-08-16T01:09:42.756Z,99579.84
2022-08-16T01:14:53.291Z,99580.88
2022-08-16T01:20:00.882Z,99582.96
2022-08-16T01:25:11.316Z,99580.70
2022-08-16T01:30:27.717Z,99575.08
2022-08-16T01:35:36.394Z,99577.07
2022-08-16T01:40:40.045Z,99577.19
2022-08-16T01:45:46.125Z,99571.22
2022-08-16T01:51:08.811Z,99564.48
2022-08-16T01:56:24.322Z,99563.14
2022-08-16T02:01:29.917Z,99559.85
2022-08-16T02:06:37.980Z,99556.20
2022-08-16T02:11:48.314Z,99555.05
2022-08-16T02:16:59.079Z,99553.13
2022-08-16T02:22:08.531Z,99556.35
2022-08-16T02:27:25.961Z,99553.45
2022-08-16T02:32:50.198Z,99554.25
2022-08-16T02:37:56.031Z,99554.50
2022-08-16T02:42:59.255Z,99549.48
2022-08-16T02:48:29.580Z,99552.11
2022-08-16T02:53:26.564Z,99552.77
2022-08-16T02:58:29.646Z,99550.83
2022-08-16T03:04:30.061Z,99542.36
2022-08-16T03:08:57.935Z,99540.67
2022-08-16T03:14:07.292Z,99544.27
2022-08-16T03:19:11.554Z,99543.96
2022-08-16T03:24:28.551Z,99542.23
2022-08-16T03:29:33.927Z,99551.91
2022-08-16T03:34:37.058Z,99560.07
2022-08-16T03:39:42.649Z,99562.41
2022-08-16T03:44:49.573Z,99566.96
2022-08-16T03:49:53.641Z,99568.63
2022-08-16T03:54:59.273Z,99566.95
2022-08-16T04:00:40.947Z,99573.17
2022-08-16T04:05:48.558Z,99574.92
2022-08-16T04:10:52.882Z,99584.42
2022-08-16T04:15:59.348Z,99583.67
2022-08-16T04:21:04.187Z,99586.41
2022-08-16T04:26:07.769Z,99587.03
2022-08-16T04:31:20.470Z,99589.86
2022-08-16T04:36:23.585Z,99593.09
2022-08-16T04:41:32.593Z,99590.30
2022-08-16T04:47:00.700Z,99584.75
2022-08-16T04:52:05.360Z,99603.73
2022-08-16T04:57:30.227Z,99609.73
2022-08-16T05:02:42.454Z,99608.59
2022-08-16T05:07:59.477Z,99613.30
2022-08-16T05:13:03.356Z,99614.77
2022-08-16T05:18:06.480Z,99622.12
2022-08-16T05:23:19.422Z,99622.67
2022-08-16T05:28:30.940Z,99620.45
2022-08-16T05:33:42.134Z,99617.66
2022-08-16T05:38:46.028Z,99618.77
2022-08-16T05:43:49.315Z,99620.04
2022-08-16T05:48:55.208Z,99613.64
2022-08-16T05:54:03.466Z,99611.64
2022-08-16T05:59:07.534Z,99608.72
2022-08-16T06:04:34.787Z,99611.64
2022-08-16T06:09:37.210Z,99613.79
2022-08-16T06:14:52.890Z,99617.40
2022-08-16T06:19:59.127Z,99618.45
2022-08-16T06:25:02.429Z,99621.70
2022-08-16T06:30:12.457Z,99625.59
2022-08-16T06:35:24.232Z,99626.88
2022-08-16T06:40:33.493Z,99630.41
2022-08-16T06:45:43.523Z,99642.20
2022-08-16T06:50:52.505Z,99642.46
2022-08-16T07:01:10.001Z,99648.07
2022-08-16T07:06:21.773Z,99644.52
2022-08-16T07:11:45.542Z,99651.09
2022-08-16T07:16:52.386Z,99648.80
2022-08-16T07:21:59.915Z,99643.48
2022-08-16T07:27:08.654Z,99638.52
2022-08-16T07:32:15.814Z,99637.47
2022-08-16T07:37:23.121Z,99636.30
2022-08-16T07:42:34.875Z,99629.14
2022-08-16T07:47:38.465Z,99623.36
2022-08-16T07:52:45.576Z,99623.11
2022-08-16T07:57:59.829Z,99626.42
2022-08-16T08:03:02.671Z,99627.63
2022-08-16T08:08:11.841Z,99628.36
2022-08-16T08:13:42.731Z,99631.08
2022-08-16T08:18:50.479Z,99631.49
2022-08-16T08:24:00.249Z,99635.44
2022-08-16T08:29:07.973Z,99633.77
2022-08-16T08:34:13.776Z,99634.50
2022-08-16T08:39:22.576Z,99634.11
2022-08-16T08:44:28.815Z,99632.56
2022-08-16T08:49:46.846Z,99629.77
2022-08-16T08:54:58.761Z,99627.50
2022-08-16T09:00:03.401Z,99617.80
2022-08-16T09:05:17.363Z,99615.10
2022-08-16T09:10:22.037Z,99615.90
2022-08-16T09:15:32.997Z,99608.63
2022-08-16T09:20:59.694Z,99609.70
2022-08-16T09:26:01.088Z,99610.20
2022-08-16T09:31:05.271Z,99615.73
2022-08-16T09:36:11.996Z,99620.89
2022-08-16T09:41:33.788Z,99619.97
2022-08-16T09:46:48.955Z,99621.08
2022-08-16T09:51:55.500Z,99625.88
2022-08-16T09:57:01.760Z,99628.07
2022-08-16T10:02:25.997Z,99624.29
2022-08-16T10:07:44.504Z,99625.20
2022-08-16T10:13:07.149Z,99628.22
2022-08-16T10:18:56.505Z,99640.17
2022-08-16T10:23:36.707Z,99644.55
2022-08-16T10:28:42.343Z,99639.92
2022-08-16T10:33:46.590Z,99641.73
2022-08-16T10:38:52.139Z,99644.41
2022-08-16T10:43:55.161Z,99639.29
2022-08-16T10:48:58.298Z,99643.42
2022-08-16T10:54:04.820Z,99642.77
2022-08-16T11:15:24.371Z,99628.60
2022-08-16T11:20:49.007Z,99632.19
2022-08-16T11:26:10.426Z,99631.44
2022-08-16T11:31:08.901Z,99635.67
2022-08-16T11:36:27.704Z,99638.92
2022-08-16T11:41:34.376Z,99630.94
2022-08-16T11:46:45.242Z,99630.04
2022-08-16T11:51:50.166Z,99628.13
2022-08-16T11:56:57.511Z,99631.71
2022-08-16T12:02:30.622Z,99642.38
2022-08-16T12:07:24.094Z,99641.02
2022-08-16T12:12:28.426Z,99640.19
2022-08-16T12:17:34.907Z,99635.11
2022-08-16T12:22:40.239Z,99630.05
2022-08-16T12:27:49.748Z,99630.34
2022-08-16T12:32:54.718Z,99623.41
2022-08-16T12:38:38.231Z,99616.79
2022-08-16T12:43:26.141Z,99619.45
2022-08-16T12:48:55.407Z,99618.16
2022-08-16T12:54:01.692Z,99614.27
2022-08-16T12:59:12.197Z,99609.77
2022-08-16T13:04:24.928Z,99603.93
2022-08-16T13:09:30.766Z,99593.00
2022-08-16T13:14:38.007Z,99588.68
2022-08-16T13:20:07.299Z,99583.02
2022-08-16T13:25:06.703Z,99573.71
2022-08-16T13:30:35.464Z,99569.21
2022-08-16T13:35:36.878Z,99563.40
2022-08-16T13:40:50.183Z,99562.96
2022-08-16T13:45:57.538Z,99553.79
2022-08-16T13:51:04.344Z,99548.11
2022-08-16T13:56:07.619Z,99546.92
2022-08-16T14:01:13.915Z,99540.27
2022-08-16T14:06:18.727Z,99536.16
2022-08-16T14:11:21.803Z,99530.77
2022-08-16T14:16:33.629Z,99524.79
2022-08-16T14:21:37.522Z,99513.45
2022-08-16T14:26:43.035Z,99514.87
2022-08-16T14:31:46.201Z,99509.23
2022-08-16T14:36:53.070Z,99513.10
2022-08-16T14:42:11.174Z,99513.62
2022-08-16T14:47:17.022Z,99521.14
2022-08-16T14:52:52.103Z,99525.91
2022-08-16T14:57:46.142Z,99535.06
2022-08-16T15:02:54.170Z,99547.75
2022-08-16T15:07:57.404Z,99559.55
2022-08-16T15:13:01.388Z,99561.36
2022-08-16T15:18:06.343Z,99568.52
2022-08-16T15:23:15.482Z,99576.45
2022-08-16T15:28:30.583Z,99585.88
2022-08-16T15:33:42.691Z,99585.40
2022-08-16T15:39:02.359Z,99584.83
2022-08-16T15:44:14.817Z,99592.45
2022-08-16T15:49:21.542Z,99594.61
2022-08-16T15:54:31.024Z,99595.68
2022-08-16T15:59:49.208Z,99606.39
2022-08-16T16:04:56.103Z,99612.19
2022-08-16T16:10:01.240Z,99615.21
2022-08-16T16:15:05.093Z,99621.45
2022-08-16T16:20:14.573Z,99622.85
2022-08-16T16:25:19.505Z,99623.39
2022-08-16T16:30:38.292Z,99623.80
2022-08-16T16:35:47.151Z,99629.13
2022-08-16T16:41:04.931Z,99632.14
2022-08-16T16:46:41.383Z,99638.94
2022-08-16T16:51:40.961Z,99640.79
2022-08-16T16:56:49.688Z,99642.10
2022-08-16T17:01:59.585Z,99637.70
2022-08-16T17:07:18.024Z,99640.34
2022-08-16T17:12:46.890Z,99638.01
2022-08-16T17:17:59.096Z,99640.27
2022-08-16T17:23:06.017Z,99640.50
2022-08-16T17:28:58.962Z,99639.88
2022-08-16T17:33:37.334Z,99647.98
2022-08-16T17:39:00.268Z,99651.44
2022-08-16T17:44:05.731Z,99651.06
2022-08-16T17:49:08.964Z,99652.56
2022-08-16T17:54:20.624Z,99659.16
2022-08-16T17:59:35.512Z,99664.45
2022-08-16T18:04:49.876Z,99667.65
2022-08-16T18:09:53.292Z,99669.37
2022-08-16T18:15:00.173Z,99671.06
2022-08-16T18:20:29.552Z,99673.91
2022-08-16T18:25:33.015Z,99677.22
2022-08-16T18:30:36.074Z,99682.71
2022-08-16T18:35:39.490Z,99680.17
2022-08-16T18:40:43.810Z,99678.50
2022-08-16T18:45:50.420Z,99674.52
2022-08-16T18:51:03.167Z,99682.56
2022-08-16T18:56:10.547Z,99690.44
2022-08-16T19:01:13.941Z,99698.73
2022-08-16T19:06:18.386Z,99702.02
2022-08-16T19:11:23.649Z,99702.73
2022-08-16T19:16:26.668Z,99696.88
2022-08-16T19:21:29.550Z,99696.84
2022-08-16T19:26:32.642Z,99697.65
2022-08-16T19:31:41.398Z,99700.66
2022-08-16T19:36:45.128Z,99703.14
2022-08-16T19:41:52.098Z,99702.13
2022-08-16T19:46:57.918Z,99704.98
2022-08-16T19:52:11.042Z,99705.05
2022-08-16T19:57:19.813Z,99703.35
2022-08-16T20:02:36.047Z,99701.11
2022-08-16T20:07:39.690Z,99701.23
2022-08-16T20:13:01.818Z,99704.91
2022-08-16T20:18:12.686Z,99706.30
2022-08-16T20:23:28.141Z,99704.80
2022-08-16T20:28:52.269Z,99707.05
2022-08-16T20:33:57.174Z,99711.80
2022-08-16T20:39:03.062Z,99711.89
2022-08-16T20:44:06.261Z,99714.69
2022-08-16T20:49:13.180Z,99719.59
2022-08-16T20:54:16.119Z,99719.46
2022-08-16T20:59:19.220Z,99720.32
2022-08-16T21:04:25.643Z,99726.37
2022-08-16T21:09:32.658Z,99721.20
2022-08-16T21:14:35.844Z,99721.22
2022-08-16T21:19:39.831Z,99723.48
2022-08-16T21:24:46.264Z,99728.04
2022-08-16T21:29:49.336Z,99719.46
2022-08-16T21:34:52.554Z,99716.58
2022-08-16T21:39:55.553Z,99715.44
2022-08-16T21:44:58.574Z,99714.27
2022-08-16T21:50:01.552Z,99711.44
2022-08-16T21:55:06.769Z,99715.06
2022-08-16T22:00:14.470Z,99721.43
2022-08-16T22:05:17.414Z,99723.70
2022-08-16T22:11:07.034Z,99722.95
2022-08-16T22:15:45.879Z,99725.01
2022-08-16T22:20:50.526Z,99721.73
2022-08-16T22:25:55.593Z,99723.13
2022-08-16T22:30:58.559Z,99725.73
2022-08-16T22:36:04.744Z,99728.33
2022-08-16T22:41:07.687Z,99731.80
2022-08-16T22:46:10.793Z,99732.27
2022-08-16T22:51:13.946Z,99730.89
2022-08-16T22:56:17.756Z,99737.08
2022-08-16T23:01:24.585Z,99737.20
2022-08-16T23:06:27.573Z,99738.23
2022-08-16T23:11:31.380Z,99728.84
2022-08-16T23:16:35.224Z,99722.43
2022-08-16T23:21:45.219Z,99721.08
2022-08-16T23:26:49.618Z,99720.58
2022-08-16T23:31:59.964Z,99720.52
2022-08-16T23:37:03.028Z,99720.04
2022-08-16T23:42:15.595Z,99718.02
2022-08-16T23:47:39.240Z,99719.19
2022-08-16T23:52:55.917Z,99719.42
2022-08-16T23:57:59.592Z,99716.73
